createdAt,value
2018-12-11T00:01:31.152Z,98633.56
2018-12-11T00:03:07.070Z,98639.63
2018-12-11T00:04:45.568Z,98635.81
2018-12-11T00:06:23.647Z,98637.46
2018-12-11T00:08:04.549Z,98650.72
2018-12-11T00:09:44.385Z,98655.78
2018-12-11T00:11:24.581Z,98667.23
2018-12-11T00:13:05.310Z,98662.74
2018-12-11T00:14:42.268Z,98663.86
2018-12-11T00:16:20.576Z,98665.44
2018-12-11T00:17:57.059Z,98666.45
2018-12-11T00:19:33.682Z,98665.66
2018-12-11T00:21:10.135Z,98670.72
2018-12-11T00:22:58.367Z,98673.86
2018-12-11T00:27:55.309Z,98708.22
2018-12-11T00:29:31.454Z,98709.01
2018-12-11T00:31:08.032Z,98705.97
2018-12-11T00:32:44.194Z,98705.64
2018-12-11T00:34:20.244Z,98707.55
2018-12-11T00:35:57.144Z,98704.17
2018-12-11T00:37:34.342Z,98710.36
2018-12-11T00:39:10.916Z,98722.16
2018-12-11T00:40:50.808Z,98715.98
2018-12-11T00:42:27.084Z,98729.13
2018-12-11T00:44:04.118Z,98724.52
2018-12-11T00:45:40.932Z,98732.05
2018-12-11T00:47:16.925Z,98731.48
2018-12-11T00:48:56.792Z,98736.32
2018-12-11T00:50:41.797Z,98735.31
2018-12-11T00:52:23.166Z,98745.20
2018-12-11T00:53:59.875Z,98748.69
2018-12-11T00:55:36.567Z,98744.08
2018-12-11T00:57:12.795Z,98740.48
2018-12-11T00:58:48.806Z,98749.02
2018-12-11T01:00:26.559Z,98748.45
2018-12-11T01:02:04.126Z,98757.67
2018-12-11T01:03:42.376Z,98751.72
2018-12-11T01:05:19.143Z,98757.00
2018-12-11T01:06:56.940Z,98757.90
2018-12-11T01:08:33.219Z,98760.93
2018-12-11T01:10:19.392Z,98757.11
2018-12-11T01:11:55.700Z,98765.99
2018-12-11T01:13:33.018Z,98766.78
2018-12-11T01:15:08.842Z,98759.81
2018-12-11T01:16:45.018Z,98777.12
2018-12-11T01:18:25.110Z,98782.73
2018-12-11T01:20:00.694Z,98789.14
2018-12-11T01:21:36.867Z,98793.19
2018-12-11T01:23:12.668Z,98801.52
2018-12-11T01:24:48.248Z,98797.13
2018-12-11T01:26:24.050Z,98808.48
2018-12-11T01:28:00.263Z,98816.34
2018-12-11T01:29:36.753Z,98817.25
2018-12-11T01:31:12.471Z,98816.45
2018-12-11T01:32:48.603Z,98825.78
2018-12-11T01:34:25.635Z,98826.23
2018-12-11T01:36:02.288Z,98839.16
2018-12-11T01:37:38.352Z,98844.33
2018-12-11T01:39:14.146Z,98838.14
2018-12-11T01:40:50.785Z,98848.59
2018-12-11T01:42:27.196Z,98843.99
2018-12-11T01:44:04.049Z,98846.23
2018-12-11T01:45:41.493Z,98858.16
2018-12-11T01:47:21.662Z,98867.04
2018-12-11T01:49:02.080Z,98877.36
2018-12-11T01:50:38.047Z,98864.34
2018-12-11T01:52:13.960Z,98870.53
2018-12-11T01:53:50.038Z,98871.31
2018-12-11T01:55:25.784Z,98869.73
2018-12-11T01:57:02.989Z,98878.25
2018-12-11T01:58:39.565Z,98883.32
2018-12-11T02:00:18.936Z,98889.73
2018-12-11T02:01:55.649Z,98898.05
2018-12-11T02:03:33.069Z,98900.75
2018-12-11T02:05:09.138Z,98909.07
2018-12-11T02:06:44.786Z,98914.47
2018-12-11T02:08:21.387Z,98917.63
2018-12-11T02:09:57.390Z,98928.41
2018-12-11T02:11:33.158Z,98933.81
2018-12-11T02:13:08.958Z,98944.27
2018-12-11T02:14:47.589Z,98938.41
2018-12-11T02:16:23.964Z,98943.25
2018-12-11T02:18:07.566Z,98952.59
2018-12-11T02:19:43.231Z,98944.27
2018-12-11T02:21:18.806Z,98950.00
2018-12-11T02:22:54.401Z,98953.71
2018-12-11T02:24:31.539Z,98952.03
2018-12-11T02:26:11.354Z,98947.07
2018-12-11T02:27:48.470Z,98955.06
2018-12-11T02:29:24.869Z,98958.22
2018-12-11T02:31:01.348Z,98966.08
2018-12-11T02:32:37.689Z,98961.02
2018-12-11T02:34:15.794Z,98970.80
2018-12-11T02:35:52.065Z,98974.05
2018-12-11T02:37:28.728Z,98970.23
2018-12-11T02:39:06.596Z,98976.19
2018-12-11T02:40:42.951Z,98981.59
2018-12-11T02:42:20.382Z,98981.81
2018-12-11T02:43:58.141Z,98980.13
2018-12-11T02:45:34.224Z,98987.44
2018-12-11T02:47:10.332Z,98991.81
2018-12-11T02:48:47.867Z,98994.52
2018-12-11T02:50:28.190Z,98981.81
2018-12-11T02:52:04.542Z,98981.13
2018-12-11T02:53:41.451Z,98984.61
2018-12-11T02:55:18.458Z,98984.28
2018-12-11T02:56:55.241Z,98983.27
2018-12-11T02:58:31.772Z,98988.09
2018-12-11T03:00:09.282Z,98983.03
2018-12-11T03:01:45.791Z,98988.20
2018-12-11T03:03:21.509Z,98996.53
2018-12-11T03:04:57.124Z,98992.25
2018-12-11T03:06:34.092Z,98999.45
2018-12-11T03:08:09.747Z,98997.77
2018-12-11T03:09:45.501Z,99003.40
2018-12-11T03:11:22.748Z,99006.00
2018-12-11T03:12:59.398Z,99011.13
2018-12-11T03:14:39.075Z,99018.67
2018-12-11T03:16:14.920Z,99016.41
2018-12-11T03:17:52.254Z,99014.82
2018-12-11T03:19:27.941Z,99016.17
2018-12-11T03:21:07.424Z,99024.72
2018-12-11T03:22:47.638Z,99017.19
2018-12-11T03:24:28.641Z,99013.02
2018-12-11T03:26:07.468Z,99013.24
2018-12-11T03:27:47.265Z,99020.55
2018-12-11T03:29:22.288Z,99016.59
2018-12-11T03:30:58.107Z,99018.08
2018-12-11T03:32:33.504Z,99016.17
2018-12-11T03:34:09.478Z,99030.64
2018-12-11T03:35:45.415Z,99023.57
2018-12-11T03:37:20.936Z,99029.75
2018-12-11T03:38:56.266Z,99024.27
2018-12-11T03:40:31.347Z,99023.94
2018-12-11T03:42:06.966Z,99034.72
2018-12-11T03:43:42.766Z,99035.41
2018-12-11T03:45:18.634Z,99033.73
2018-12-11T03:46:53.902Z,99025.64
2018-12-11T03:48:29.079Z,99039.23
2018-12-11T03:50:04.556Z,99037.78
2018-12-11T03:51:40.842Z,99052.06
2018-12-11T03:53:15.919Z,99057.13
2018-12-11T03:54:51.543Z,99057.59
2018-12-11T03:56:27.233Z,99052.75
2018-12-11T03:58:02.706Z,99058.61
2018-12-11T03:59:40.513Z,99070.30
2018-12-11T04:01:17.170Z,99076.71
2018-12-11T04:02:52.441Z,99085.59
2018-12-11T04:04:31.518Z,99076.38
2018-12-11T04:06:06.607Z,99074.80
2018-12-11T04:07:42.344Z,99080.52
2018-12-11T04:09:17.479Z,99076.25
2018-12-11T04:10:53.175Z,99086.94
2018-12-11T04:12:28.995Z,99084.25
2018-12-11T04:14:04.264Z,99082.66
2018-12-11T04:15:40.148Z,99086.71
2018-12-11T04:17:15.602Z,99084.67
2018-12-11T04:18:52.132Z,99086.94
2018-12-11T04:20:27.768Z,99091.55
2018-12-11T04:22:03.071Z,99092.01
2018-12-11T04:23:38.712Z,99100.86
2018-12-11T04:25:13.803Z,99097.28
2018-12-11T04:26:51.353Z,99094.58
2018-12-11T04:28:27.966Z,99093.23
2018-12-11T04:30:06.052Z,99111.33
2018-12-11T04:31:41.682Z,99100.77
2018-12-11T04:33:17.068Z,99101.33
2018-12-11T04:34:52.285Z,99107.97
2018-12-11T04:36:28.626Z,99111.46
2018-12-11T04:38:03.954Z,99110.34
2018-12-11T04:39:39.323Z,99111.70
2018-12-11T04:41:14.404Z,99120.58
2018-12-11T04:42:49.457Z,99131.28
2018-12-11T04:44:25.270Z,99127.56
2018-12-11T04:46:00.924Z,99127.56
2018-12-11T04:47:35.980Z,99131.84
2018-12-11T04:49:11.154Z,99144.54
2018-12-11T04:50:46.871Z,99143.42
2018-12-11T04:52:22.869Z,99142.86
2018-12-11T04:53:58.089Z,99143.09
2018-12-11T04:55:33.192Z,99151.30
2018-12-11T04:57:08.672Z,99150.86
2018-12-11T04:58:43.686Z,99153.77
2018-12-11T05:00:19.605Z,99158.50
2018-12-11T05:01:54.837Z,99158.27
2018-12-11T05:03:30.197Z,99159.61
2018-12-11T05:05:05.875Z,99166.27
2018-12-11T05:06:40.920Z,99166.36
2018-12-11T05:08:17.153Z,99169.39
2018-12-11T05:09:52.393Z,99175.11
2018-12-11T05:11:28.414Z,99172.74
2018-12-11T05:13:14.232Z,99173.77
2018-12-11T05:14:49.457Z,99175.44
2018-12-11T05:16:25.088Z,99175.07
2018-12-11T05:18:01.327Z,99176.66
2018-12-11T05:19:39.090Z,99182.41
2018-12-11T05:21:15.430Z,99180.59
2018-12-11T05:22:51.069Z,99183.17
2018-12-11T05:24:26.457Z,99185.86
2018-12-11T05:26:01.715Z,99182.05
2018-12-11T05:27:37.201Z,99189.82
2018-12-11T05:29:12.341Z,99191.49
2018-12-11T05:30:47.340Z,99189.39
2018-12-11T05:32:22.886Z,99189.91
2018-12-11T05:34:01.395Z,99189.58
2018-12-11T05:35:38.027Z,99194.73
2018-12-11T05:37:14.483Z,99193.06
2018-12-11T05:38:50.264Z,99185.85
2018-12-11T05:40:25.337Z,99192.59
2018-12-11T05:42:00.396Z,99192.13
2018-12-11T05:43:35.673Z,99192.69
2018-12-11T05:45:12.677Z,99197.06
2018-12-11T05:46:47.748Z,99197.95
2018-12-11T05:48:23.826Z,99203.02
2018-12-11T05:49:58.898Z,99200.09
2018-12-11T05:51:34.195Z,99209.20
2018-12-11T05:53:11.192Z,99204.92
2018-12-11T05:54:46.237Z,99212.45
2018-12-11T05:56:21.514Z,99216.83
2018-12-11T05:57:56.685Z,99228.65
2018-12-11T05:59:32.647Z,99229.77
2018-12-11T06:01:08.005Z,99228.53
2018-12-11T06:02:43.207Z,99230.00
2018-12-11T06:04:18.273Z,99234.60
2018-12-11T06:05:57.235Z,99227.06
2018-12-11T06:07:38.026Z,99235.30
2018-12-11T06:09:20.764Z,99234.74
2018-12-11T06:10:59.497Z,99237.20
2018-12-11T06:12:43.835Z,99240.70
2018-12-11T06:14:22.419Z,99244.98
2018-12-11T06:16:01.423Z,99251.95
2018-12-11T06:17:41.959Z,99251.16
2018-12-11T06:19:20.688Z,99247.44
2018-12-11T06:21:03.297Z,99250.84
2018-12-11T06:22:41.952Z,99256.15
2018-12-11T06:24:18.101Z,99262.42
2018-12-11T06:25:53.922Z,99260.52
2018-12-11T06:27:37.685Z,99255.59
2018-12-11T06:29:22.306Z,99261.40
2018-12-11T06:30:57.635Z,99275.36
2018-12-11T06:32:34.632Z,99263.31
2018-12-11T06:34:12.129Z,99268.61
2018-12-11T06:35:49.086Z,99266.47
2018-12-11T06:37:25.863Z,99267.13
2018-12-11T06:39:03.467Z,99274.89
2018-12-11T06:40:41.232Z,99276.16
2018-12-11T06:42:17.635Z,99281.64
2018-12-11T06:43:53.316Z,99288.06
2018-12-11T06:45:28.461Z,99281.64
2018-12-11T06:47:04.847Z,99288.62
2018-12-11T06:48:41.701Z,99284.66
2018-12-11T06:50:17.486Z,99292.43
2018-12-11T06:51:53.327Z,99296.71
2018-12-11T06:53:31.307Z,99288.94
2018-12-11T06:55:10.317Z,99303.87
2018-12-11T06:56:50.770Z,99300.94
2018-12-11T06:58:32.293Z,99300.61
2018-12-11T07:00:10.552Z,99294.98
2018-12-11T07:01:46.823Z,99306.24
2018-12-11T07:03:27.532Z,99309.73
2018-12-11T07:05:05.196Z,99304.66
2018-12-11T07:06:41.678Z,99313.78
2018-12-11T07:08:28.665Z,99316.95
2018-12-11T07:10:03.894Z,99323.70
2018-12-11T07:11:40.029Z,99329.65
2018-12-11T07:13:19.117Z,99325.59
2018-12-11T07:14:54.549Z,99326.95
2018-12-11T07:16:31.457Z,99335.92
2018-12-11T07:18:09.271Z,99339.80
2018-12-11T07:19:47.238Z,99335.05
2018-12-11T07:21:23.552Z,99340.13
2018-12-11T07:23:01.636Z,99352.27
2018-12-11T07:24:40.331Z,99356.22
2018-12-11T07:26:17.581Z,99356.55
2018-12-11T07:27:55.248Z,99357.81
2018-12-11T07:29:32.156Z,99364.88
2018-12-11T07:31:11.941Z,99367.81
2018-12-11T07:32:51.399Z,99365.31
2018-12-11T07:34:30.781Z,99372.97
2018-12-11T07:36:05.873Z,99376.70
2018-12-11T07:37:41.050Z,99382.86
2018-12-11T07:39:16.542Z,99382.53
2018-12-11T07:40:52.681Z,99382.65
2018-12-11T07:42:30.787Z,99380.74
2018-12-11T07:44:06.435Z,99388.92
2018-12-11T07:45:44.189Z,99386.55
2018-12-11T07:47:22.307Z,99387.19
2018-12-11T07:48:58.193Z,99386.23
2018-12-11T07:50:35.951Z,99394.64
2018-12-11T07:52:11.176Z,99400.92
2018-12-11T07:53:49.366Z,99405.44
2018-12-11T07:55:24.968Z,99403.61
2018-12-11T07:57:00.238Z,99404.97
2018-12-11T07:58:36.550Z,99405.99
2018-12-11T08:00:15.781Z,99399.57
2018-12-11T08:01:51.321Z,99402.59
2018-12-11T08:03:32.943Z,99404.73
2018-12-11T08:05:08.498Z,99416.08
2018-12-11T08:06:44.114Z,99418.22
2018-12-11T08:08:19.729Z,99425.20
2018-12-11T08:09:56.223Z,99420.45
2018-12-11T08:11:32.741Z,99421.00
2018-12-11T08:13:10.699Z,99420.45
2018-12-11T08:14:46.725Z,99422.59
2018-12-11T08:16:23.790Z,99426.79
2018-12-11T08:18:01.916Z,99426.55
2018-12-11T08:19:39.598Z,99419.66
2018-12-11T08:21:21.148Z,99425.76
2018-12-11T08:22:56.516Z,99419.97
2018-12-11T08:24:32.697Z,99437.98
2018-12-11T08:26:08.081Z,99441.67
2018-12-11T08:27:44.478Z,99431.11
2018-12-11T08:29:20.630Z,99439.53
2018-12-11T08:30:57.958Z,99440.32
2018-12-11T08:32:33.175Z,99448.54
2018-12-11T08:34:09.072Z,99449.57
2018-12-11T08:35:45.266Z,99450.69
2018-12-11T08:37:22.257Z,99454.64
2018-12-11T08:39:00.003Z,99453.62
2018-12-11T08:40:35.493Z,99454.17
2018-12-11T08:42:12.216Z,99467.50
2018-12-11T08:43:50.042Z,99473.13
2018-12-11T08:45:25.279Z,99476.98
2018-12-11T08:47:01.171Z,99475.56
2018-12-11T08:48:36.265Z,99474.95
2018-12-11T08:50:11.656Z,99472.81
2018-12-11T08:51:48.275Z,99477.42
2018-12-11T08:53:23.798Z,99485.75
2018-12-11T08:54:59.645Z,99486.98
2018-12-11T08:56:35.231Z,99486.98
2018-12-11T08:58:11.366Z,99498.81
2018-12-11T08:59:47.720Z,99500.88
2018-12-11T09:01:23.305Z,99506.36
2018-12-11T09:03:00.369Z,99507.06
2018-12-11T09:04:36.257Z,99516.44
2018-12-11T09:06:11.691Z,99516.83
2018-12-11T09:07:47.483Z,99515.16
2018-12-11T09:09:24.270Z,99514.05
2018-12-11T09:11:01.201Z,99512.94
2018-12-11T09:12:36.682Z,99517.94
2018-12-11T09:14:12.395Z,99515.88
2018-12-11T09:15:49.768Z,99523.81
2018-12-11T09:17:25.455Z,99519.92
2018-12-11T09:19:01.086Z,99529.61
2018-12-11T09:20:36.559Z,99533.55
2018-12-11T09:22:11.797Z,99533.18
2018-12-11T09:23:49.793Z,99544.69
2018-12-11T09:25:25.769Z,99547.55
2018-12-11T09:27:00.995Z,99558.19
2018-12-11T09:28:37.847Z,99558.74
2018-12-11T09:30:19.006Z,99569.86
2018-12-11T09:31:54.638Z,99575.25
2018-12-11T09:33:29.804Z,99577.16
2018-12-11T09:35:05.332Z,99577.88
2018-12-11T09:36:42.703Z,99585.31
2018-12-11T09:38:18.740Z,99582.37
2018-12-11T09:39:54.964Z,99598.25
2018-12-11T09:41:30.235Z,99593.72
2018-12-11T09:43:05.801Z,99604.60
2018-12-11T09:44:41.892Z,99615.05
2018-12-11T09:46:17.122Z,99626.97
2018-12-11T09:47:54.371Z,99623.23
2018-12-11T09:49:30.038Z,99629.98
2018-12-11T09:51:06.026Z,99636.31
2018-12-11T09:52:42.419Z,99633.29
2018-12-11T09:54:21.319Z,99632.92
2018-12-11T09:55:58.244Z,99636.63
2018-12-11T09:57:34.385Z,99632.92
2018-12-11T09:59:10.377Z,99633.21
2018-12-11T10:00:47.715Z,99630.59
2018-12-11T10:02:23.482Z,99634.32
2018-12-11T10:03:58.833Z,99637.21
2018-12-11T10:05:36.713Z,99641.87
2018-12-11T10:07:13.382Z,99655.27
2018-12-11T10:08:49.311Z,99642.82
2018-12-11T10:10:25.393Z,99652.19
2018-12-11T10:12:03.733Z,99655.05
2018-12-11T10:13:38.895Z,99658.39
2018-12-11T10:15:17.253Z,99665.43
2018-12-11T10:16:54.792Z,99664.80
2018-12-11T10:18:30.574Z,99665.11
2018-12-11T10:20:09.093Z,99662.57
2018-12-11T10:21:44.980Z,99666.46
2018-12-11T10:23:20.950Z,99664.56
2018-12-11T10:24:56.546Z,99660.50
2018-12-11T10:26:35.812Z,99669.33
2018-12-11T10:28:11.946Z,99666.38
2018-12-11T10:29:49.816Z,99677.98
2018-12-11T10:31:28.347Z,99681.84
2018-12-11T10:33:05.480Z,99679.78
2018-12-11T10:34:40.601Z,99683.98
2018-12-11T10:36:15.885Z,99687.41
2018-12-11T10:37:52.135Z,99678.11
2018-12-11T10:39:29.981Z,99678.34
2018-12-11T10:41:06.088Z,99671.91
2018-12-11T10:42:47.307Z,99667.86
2018-12-11T10:44:27.175Z,99668.17
2018-12-11T10:46:03.402Z,99672.58
2018-12-11T10:47:38.636Z,99668.37
2018-12-11T10:49:13.768Z,99666.49
2018-12-11T10:50:50.439Z,99670.44
2018-12-11T10:52:25.618Z,99670.83
2018-12-11T10:54:00.838Z,99678.22
2018-12-11T10:55:39.107Z,99686.09
2018-12-11T10:57:24.333Z,99682.16
2018-12-11T10:59:04.649Z,99690.03
2018-12-11T11:00:53.030Z,99694.75
2018-12-11T11:02:43.831Z,99687.33
2018-12-11T11:04:22.858Z,99680.20
2018-12-11T11:06:01.404Z,99673.56
2018-12-11T11:07:44.792Z,99672.47
2018-12-11T11:09:20.033Z,99668.83
2018-12-11T11:10:55.980Z,99667.15
2018-12-11T11:12:31.780Z,99669.77
2018-12-11T11:14:07.582Z,99659.61
2018-12-11T11:15:44.044Z,99662.94
2018-12-11T11:17:19.868Z,99664.38
2018-12-11T11:18:55.625Z,99656.98
2018-12-11T11:20:32.455Z,99654.52
2018-12-11T11:22:10.090Z,99661.20
2018-12-11T11:23:45.897Z,99660.56
2018-12-11T11:25:23.233Z,99660.16
2018-12-11T11:27:06.482Z,99657.65
2018-12-11T11:28:43.642Z,99650.97
2018-12-11T11:30:25.993Z,99647.27
2018-12-11T11:32:03.070Z,99647.27
2018-12-11T11:33:39.443Z,99644.56
2018-12-11T11:35:20.237Z,99636.55
2018-12-11T11:36:59.930Z,99645.80
2018-12-11T11:38:37.607Z,99638.27
2018-12-11T11:40:15.687Z,99640.75
2018-12-11T11:41:51.050Z,99637.09
2018-12-11T11:43:28.571Z,99636.91
2018-12-11T11:45:08.454Z,99645.81
2018-12-11T11:46:46.649Z,99642.56
2018-12-11T11:48:30.021Z,99638.98
2018-12-11T11:50:08.126Z,99642.24
2018-12-11T11:51:48.624Z,99635.63
2018-12-11T11:53:25.591Z,99638.80
2018-12-11T11:55:02.383Z,99642.45
2018-12-11T11:56:38.936Z,99646.31
2018-12-11T11:58:15.780Z,99647.11
2018-12-11T11:59:53.821Z,99653.15
2018-12-11T12:01:31.500Z,99652.36
2018-12-11T12:03:10.507Z,99655.90
2018-12-11T12:04:48.386Z,99656.14
2018-12-11T12:06:29.574Z,99649.94
2018-12-11T12:08:19.961Z,99655.10
2018-12-11T12:09:58.997Z,99655.50
2018-12-11T12:11:37.527Z,99665.98
2018-12-11T12:13:15.482Z,99664.92
2018-12-11T12:14:52.412Z,99674.13
2018-12-11T12:16:32.759Z,99675.41
2018-12-11T12:18:16.766Z,99673.26
2018-12-11T12:20:00.315Z,99668.73
2018-12-11T12:21:40.575Z,99667.30
2018-12-11T12:23:17.684Z,99674.16
2018-12-11T12:24:54.713Z,99685.00
2018-12-11T12:26:30.173Z,99701.69
2018-12-11T12:28:05.891Z,99713.00
2018-12-11T12:29:41.806Z,99709.11
2018-12-11T12:31:19.569Z,99699.42
2018-12-11T12:32:55.123Z,99691.93
2018-12-11T12:34:33.333Z,99687.16
2018-12-11T12:36:09.475Z,99689.55
2018-12-11T12:37:44.610Z,99693.69
2018-12-11T12:39:20.887Z,99691.06
2018-12-11T12:40:57.569Z,99692.09
2018-12-11T12:42:36.370Z,99690.86
2018-12-11T12:44:11.541Z,99693.64
2018-12-11T12:45:48.232Z,99695.36
2018-12-11T12:47:25.247Z,99698.61
2018-12-11T12:49:02.773Z,99704.05
2018-12-11T12:50:42.129Z,99698.41
2018-12-11T12:52:21.713Z,99706.67
2018-12-11T12:53:59.326Z,99703.73
2018-12-11T12:55:35.048Z,99709.70
2018-12-11T12:57:17.512Z,99706.91
2018-12-11T12:58:54.831Z,99711.69
2018-12-11T13:00:31.391Z,99707.27
2018-12-11T13:02:08.463Z,99701.55
2018-12-11T13:03:44.493Z,99699.52
2018-12-11T13:05:19.910Z,99700.77
2018-12-11T13:06:59.264Z,99701.55
2018-12-11T13:08:39.527Z,99700.68
2018-12-11T13:10:19.104Z,99699.25
2018-12-11T13:11:54.477Z,99708.98
2018-12-11T13:13:30.429Z,99714.78
2018-12-11T13:15:14.684Z,99722.30
2018-12-11T13:16:57.657Z,99724.98
2018-12-11T13:18:34.974Z,99723.23
2018-12-11T13:20:16.548Z,99721.17
2018-12-11T13:21:53.930Z,99724.83
2018-12-11T13:23:33.024Z,99717.67
2018-12-11T13:25:08.146Z,99724.67
2018-12-11T13:26:44.043Z,99728.17
2018-12-11T13:28:23.308Z,99731.59
2018-12-11T13:29:58.818Z,99733.58
2018-12-11T13:31:35.166Z,99730.64
2018-12-11T13:33:11.479Z,99736.12
2018-12-11T13:34:47.638Z,99735.73
2018-12-11T13:36:23.943Z,99742.13
2018-12-11T13:38:00.766Z,99738.03
2018-12-11T13:39:39.399Z,99731.50
2018-12-11T13:41:17.102Z,99732.94
2018-12-11T13:42:52.926Z,99731.91
2018-12-11T13:44:30.515Z,99722.85
2018-12-11T13:46:06.325Z,99731.27
2018-12-11T13:47:43.777Z,99725.94
2018-12-11T13:49:21.930Z,99729.27
2018-12-11T13:51:00.658Z,99735.98
2018-12-11T13:52:41.184Z,99728.75
2018-12-11T13:54:18.137Z,99715.28
2018-12-11T13:55:54.394Z,99722.16
2018-12-11T13:57:29.755Z,99717.90
2018-12-11T13:59:04.900Z,99712.81
2018-12-11T14:00:43.577Z,99715.75
2018-12-11T14:02:19.943Z,99714.95
2018-12-11T14:03:56.296Z,99722.08
2018-12-11T14:05:37.205Z,99715.52
2018-12-11T14:07:15.313Z,99706.93
2018-12-11T14:10:33.025Z,99707.98
2018-12-11T14:12:08.403Z,99702.33
2018-12-11T14:13:45.140Z,99704.08
2018-12-11T14:15:20.991Z,99714.05
2018-12-11T14:17:03.792Z,99704.22
2018-12-11T14:18:40.463Z,99699.45
2018-12-11T14:20:16.977Z,99698.07
2018-12-11T14:21:55.505Z,99686.78
2018-12-11T14:23:32.073Z,99691.17
2018-12-11T14:25:07.558Z,99689.37
2018-12-11T14:26:43.533Z,99691.17
2018-12-11T14:28:18.909Z,99680.80
2018-12-11T14:29:55.516Z,99680.48
2018-12-11T14:31:32.127Z,99679.20
2018-12-11T14:33:07.825Z,99682.70
2018-12-11T14:34:44.327Z,99682.15
2018-12-11T14:36:21.386Z,99675.39
2018-12-11T14:37:57.904Z,99674.36
2018-12-11T14:39:35.456Z,99673.72
2018-12-11T14:41:12.553Z,99672.69
2018-12-11T14:42:53.430Z,99663.78
2018-12-11T14:44:35.999Z,99667.23
2018-12-11T14:46:13.937Z,99668.44
2018-12-11T14:47:52.016Z,99670.41
2018-12-11T14:49:35.433Z,99670.45
2018-12-11T14:51:14.108Z,99671.44
2018-12-11T14:52:51.708Z,99674.38
2018-12-11T14:54:29.223Z,99664.38
2018-12-11T14:56:07.011Z,99662.03
2018-12-11T14:57:45.267Z,99662.23
2018-12-11T14:59:29.103Z,99665.88
2018-12-11T15:01:07.212Z,99655.03
2018-12-11T15:02:47.964Z,99649.39
2018-12-11T15:04:24.530Z,99647.80
2018-12-11T15:06:04.279Z,99646.86
2018-12-11T15:07:39.587Z,99640.94
2018-12-11T15:09:26.085Z,99630.53
2018-12-11T15:11:04.769Z,99643.09
2018-12-11T15:12:40.796Z,99636.09
2018-12-11T15:14:19.083Z,99632.83
2018-12-11T15:15:55.744Z,99638.33
2018-12-11T15:17:32.659Z,99639.91
2018-12-11T15:19:09.679Z,99633.47
2018-12-11T15:20:44.967Z,99631.73
2018-12-11T15:22:24.432Z,99621.13
2018-12-11T15:24:00.112Z,99625.41
2018-12-11T15:25:38.970Z,99615.41
2018-12-11T15:27:18.311Z,99619.47
2018-12-11T15:29:10.263Z,99616.30
2018-12-11T15:30:52.123Z,99608.30
2018-12-11T15:32:28.689Z,99609.09
2018-12-11T15:34:10.638Z,99605.92
2018-12-11T15:35:57.205Z,99607.19
2018-12-11T15:37:41.837Z,99604.69
2018-12-11T15:39:35.634Z,99602.42
2018-12-11T15:42:29.427Z,99603.06
2018-12-11T15:44:09.313Z,99587.26
2018-12-11T15:45:53.303Z,99590.08
2018-12-11T15:48:00.521Z,99585.87
2018-12-11T15:50:08.086Z,99577.14
2018-12-11T15:51:45.156Z,99570.02
2018-12-11T15:53:23.655Z,99559.06
2018-12-11T15:55:02.060Z,99559.39
2018-12-11T15:56:43.990Z,99560.50
2018-12-11T15:58:25.078Z,99558.75
2018-12-11T16:00:08.390Z,99555.05
2018-12-11T16:01:49.346Z,99558.87
2018-12-11T16:03:32.116Z,99562.68
2018-12-11T16:05:11.987Z,99561.17
2018-12-11T16:06:53.137Z,99552.13
2018-12-11T16:08:29.659Z,99556.17
2018-12-11T16:10:09.801Z,99545.33
2018-12-11T16:12:05.346Z,99547.23
2018-12-11T16:16:07.862Z,99539.85
2018-12-11T16:17:49.226Z,99548.74
2018-12-11T16:19:28.317Z,99549.77
2018-12-11T16:21:09.842Z,99545.17
2018-12-11T16:22:50.090Z,99551.05
2018-12-11T16:24:31.614Z,99553.66
2018-12-11T16:26:09.529Z,99555.56
2018-12-11T16:27:49.636Z,99558.74
2018-12-11T16:29:30.307Z,99559.53
2018-12-11T16:31:08.520Z,99555.38
2018-12-11T16:32:53.181Z,99564.74
2018-12-11T16:34:30.400Z,99560.94
2018-12-11T16:36:06.080Z,99560.94
2018-12-11T16:37:43.171Z,99559.58
2018-12-11T16:39:21.847Z,99564.42
2018-12-11T16:41:01.251Z,99557.67
2018-12-11T16:42:44.579Z,99554.11
2018-12-11T16:44:22.908Z,99556.25
2018-12-11T16:46:02.313Z,99556.02
2018-12-11T16:47:45.469Z,99557.59
2018-12-11T16:49:23.024Z,99560.53
2018-12-11T16:51:08.738Z,99565.45
2018-12-11T16:52:54.152Z,99561.65
2018-12-11T16:54:33.548Z,99569.98
2018-12-11T16:56:12.451Z,99564.03
2018-12-11T16:57:49.563Z,99575.98
2018-12-11T16:59:26.478Z,99579.48
2018-12-11T17:01:06.548Z,99575.19
2018-12-11T17:02:51.360Z,99580.67
2018-12-11T17:04:28.695Z,99582.89
2018-12-11T17:06:04.183Z,99590.59
2018-12-11T17:07:44.593Z,99590.59
2018-12-11T17:09:21.914Z,99589.56
2018-12-11T17:11:01.500Z,99591.16
2018-12-11T17:12:38.501Z,99594.88
2018-12-11T17:14:21.771Z,99588.81
2018-12-11T17:16:00.274Z,99603.03
2018-12-11T17:17:41.543Z,99604.30
2018-12-11T17:19:20.646Z,99614.46
2018-12-11T17:21:00.577Z,99617.77
2018-12-11T17:22:40.276Z,99618.23
2018-12-11T17:24:21.337Z,99625.47
2018-12-11T17:26:01.400Z,99638.09
2018-12-11T17:27:39.840Z,99625.98
2018-12-11T17:29:24.001Z,99637.94
2018-12-11T17:30:59.676Z,99635.98
2018-12-11T17:32:37.136Z,99638.45
2018-12-11T17:34:14.598Z,99635.83
2018-12-11T17:35:53.555Z,99650.05
2018-12-11T17:37:32.834Z,99645.76
2018-12-11T17:39:11.331Z,99644.09
2018-12-11T17:40:52.229Z,99642.19
2018-12-11T17:42:28.285Z,99647.23
2018-12-11T17:44:06.375Z,99646.92
2018-12-11T17:45:43.835Z,99652.75
2018-12-11T17:47:23.120Z,99655.69
2018-12-11T17:49:00.465Z,99652.19
2018-12-11T17:50:43.705Z,99656.69
2018-12-11T17:52:24.432Z,99659.95
2018-12-11T17:54:04.742Z,99670.27
2018-12-11T17:55:42.355Z,99673.69
2018-12-11T17:57:22.254Z,99683.47
2018-12-11T17:59:00.893Z,99684.38
2018-12-11T18:00:44.346Z,99684.62
2018-12-11T18:02:36.847Z,99684.97
2018-12-11T18:04:16.217Z,99678.78
2018-12-11T18:05:58.072Z,99679.66
2018-12-11T18:07:44.373Z,99685.61
2018-12-11T18:11:34.374Z,99680.31
2018-12-11T18:13:19.915Z,99684.73
2018-12-11T18:16:55.347Z,99684.34
2018-12-11T18:18:35.555Z,99688.39
2018-12-11T18:20:16.282Z,99691.64
2018-12-11T18:21:54.359Z,99691.17
2018-12-11T18:23:34.372Z,99691.56
2018-12-11T18:25:13.647Z,99694.50
2018-12-11T18:26:52.438Z,99700.47
2018-12-11T18:28:36.359Z,99710.53
2018-12-11T18:30:21.154Z,99701.50
2018-12-11T18:32:02.617Z,99704.99
2018-12-11T18:33:42.660Z,99706.66
2018-12-11T18:35:18.781Z,99709.05
2018-12-11T18:36:56.235Z,99705.97
2018-12-11T18:38:38.155Z,99700.97
2018-12-11T18:40:14.546Z,99702.63
2018-12-11T18:41:50.797Z,99709.14
2018-12-11T18:43:30.134Z,99710.81
2018-12-11T18:45:13.536Z,99712.09
2018-12-11T18:46:49.122Z,99720.91
2018-12-11T18:48:26.323Z,99713.99
2018-12-11T18:50:07.102Z,99709.14
2018-12-11T18:51:44.169Z,99715.73
2018-12-11T18:53:21.507Z,99711.47
2018-12-11T18:55:01.027Z,99710.68
2018-12-11T18:56:40.344Z,99716.29
2018-12-11T18:58:24.862Z,99733.45
2018-12-11T19:00:04.145Z,99733.61
2018-12-11T19:01:46.385Z,99736.23
2018-12-11T19:03:27.934Z,99735.69
2018-12-11T19:05:03.334Z,99740.61
2018-12-11T19:06:42.632Z,99730.03
2018-12-11T19:08:24.168Z,99735.12
2018-12-11T19:09:59.931Z,99738.30
2018-12-11T19:11:41.167Z,99741.31
2018-12-11T19:13:16.889Z,99748.06
2018-12-11T19:14:54.820Z,99751.32
2018-12-11T19:16:33.258Z,99757.69
2018-12-11T19:18:09.217Z,99756.09
2018-12-11T19:19:47.254Z,99754.42
2018-12-11T19:21:23.355Z,99759.52
2018-12-11T19:23:11.046Z,99764.91